Terminal Aerodrome Forecast
Issued by NWS

Home | Current Version | Previous Version | Text Only | Print | Product List | Glossary On
Versions: 1 2 3 4 5 6 7 8 9 10 11 12 13 14 15 16 17 18 19 20 21 22
000
FTUS43 KGRB 262335
TAFMTW
TAF
KMTW 262335Z 2700/2724 25008KT P6SM SCT050
     FM270400 15004KT 3SM BR SCT008 BKN250
      TEMPO 2708/2712 1/2SM FG BKN002
     FM271500 15008KT 6SM BR SCT025 OVC060
      TEMPO 2721/2724 3SM +TSRA BKN025CB=

USA.gov is the U.S. government's official web portal to all federal, state and local government web resources and services.